createdAt,value
2022-11-20T00:11:31.924Z,16.33
2022-11-20T00:14:09.599Z,16.28
2022-11-20T00:17:03.445Z,16.23
2022-11-20T00:20:01.751Z,16.19
2022-11-20T00:22:29.726Z,16.14
2022-11-20T00:25:06.028Z,16.09
2022-11-20T00:33:12.015Z,15.99
2022-11-20T00:35:59.781Z,15.97
2022-11-20T00:44:09.341Z,15.85
2022-11-20T00:47:04.908Z,15.82
2022-11-20T00:55:01.253Z,15.71
2022-11-20T01:03:05.289Z,15.63
2022-11-20T01:05:59.392Z,15.60
2022-11-20T01:17:50.784Z,15.22
2022-11-20T01:21:01.035Z,15.15
2022-11-20T01:24:03.428Z,15.12
2022-11-20T01:27:10.019Z,15.04
2022-11-20T01:29:30.243Z,14.93
2022-11-20T01:32:00.463Z,14.81
2022-11-20T01:38:02.924Z,14.64
2022-11-20T01:40:30.543Z,14.54
2022-11-20T01:43:24.326Z,14.50
2022-11-20T01:46:06.470Z,14.41
2022-11-20T01:49:03.682Z,14.32
2022-11-20T01:52:04.902Z,14.13
2022-11-20T01:54:59.867Z,14.05
2022-11-20T01:57:32.018Z,14.04
2022-11-20T02:00:05.755Z,14.11
2022-11-20T02:05:24.615Z,14.18
2022-11-20T02:08:01.977Z,14.18
2022-11-20T02:11:06.354Z,14.16
2022-11-20T02:14:05.798Z,14.10
2022-11-20T02:17:08.965Z,14.09
2022-11-20T02:20:02.115Z,14.17
2022-11-20T02:23:02.166Z,14.17
2022-11-20T02:25:31.421Z,14.14
2022-11-20T02:28:05.128Z,14.08
2022-11-20T02:36:32.175Z,13.98
2022-11-20T02:39:03.457Z,13.89
2022-11-20T02:42:02.399Z,13.92
2022-11-20T02:44:32.394Z,13.90
2022-11-20T02:47:09.036Z,13.76
2022-11-20T02:53:01.335Z,13.81
2022-11-20T02:55:34.126Z,13.65
2022-11-20T02:58:07.987Z,13.53
2022-11-20T03:01:02.315Z,13.51
2022-11-20T03:03:30.403Z,13.47
2022-11-20T03:06:10.347Z,13.34
2022-11-20T03:09:09.109Z,13.25
2022-11-20T03:15:00.462Z,13.37
2022-11-20T03:17:33.723Z,13.42
2022-11-20T03:20:01.753Z,13.47
2022-11-20T03:22:34.955Z,13.47
2022-11-20T03:25:03.068Z,13.42
2022-11-20T03:27:34.040Z,13.31
2022-11-20T03:30:08.560Z,13.18
2022-11-20T03:33:14.097Z,13.07
2022-11-20T03:45:35.677Z,12.88
2022-11-20T03:48:04.373Z,12.96
2022-11-20T03:50:36.658Z,12.97
2022-11-20T03:53:32.358Z,13.05
2022-11-20T03:56:30.357Z,13.19
2022-11-20T03:59:07.986Z,13.24
2022-11-20T04:10:02.932Z,13.03
2022-11-20T04:12:33.995Z,13.08
2022-11-20T04:15:38.237Z,13.04
2022-11-20T04:18:36.451Z,12.93
2022-11-20T04:21:07.519Z,12.76
2022-11-20T04:26:35.359Z,12.56
2022-11-20T04:29:31.383Z,12.66
2022-11-20T04:32:00.455Z,12.78
2022-11-20T04:34:32.436Z,12.80
2022-11-20T04:43:01.859Z,12.83
2022-11-20T04:45:33.427Z,12.82
2022-11-20T04:51:31.289Z,12.75
2022-11-20T04:54:03.129Z,12.84
2022-11-20T04:56:34.222Z,12.94
2022-11-20T04:59:32.757Z,12.95
2022-11-20T05:05:18.363Z,12.71
2022-11-20T05:08:50.383Z,12.77
2022-11-20T05:11:32.833Z,12.87
2022-11-20T05:14:35.532Z,12.82
2022-11-20T05:25:34.242Z,12.05
2022-11-20T05:30:50.089Z,12.20
2022-11-20T05:34:00.174Z,12.07
2022-11-20T05:39:30.873Z,12.23
2022-11-20T05:54:41.743Z,11.20
2022-11-20T06:02:35.368Z,11.04
2022-11-20T06:07:59.623Z,11.13
2022-11-20T06:10:41.643Z,11.26
2022-11-20T06:13:42.066Z,11.39
2022-11-20T06:16:42.756Z,11.61
2022-11-20T06:19:30.852Z,11.76
2022-11-20T06:21:59.287Z,11.82
2022-11-20T06:24:34.293Z,11.93
2022-11-20T06:27:02.365Z,11.96
2022-11-20T06:29:33.905Z,12.04
2022-11-20T06:35:00.084Z,12.11
2022-11-20T06:37:34.182Z,12.10
2022-11-20T06:40:02.135Z,12.12
2022-11-20T06:42:30.124Z,11.94
2022-11-20T06:45:00.929Z,11.64
2022-11-20T06:47:28.818Z,11.51
2022-11-20T06:49:59.744Z,11.30
2022-11-20T06:52:30.354Z,11.07
2022-11-20T06:54:59.269Z,10.96
2022-11-20T06:57:30.395Z,11.05
2022-11-20T07:00:01.252Z,11.28
2022-11-20T07:02:29.325Z,11.54
2022-11-20T07:05:00.369Z,11.70
2022-11-20T07:07:29.235Z,11.71
2022-11-20T07:09:57.168Z,11.73
2022-11-20T07:12:31.039Z,11.71
2022-11-20T07:14:58.949Z,11.58
2022-11-20T07:17:29.733Z,11.63
2022-11-20T07:20:00.772Z,11.74
2022-11-20T07:22:28.657Z,11.82
2022-11-20T07:24:59.390Z,11.78
2022-11-20T07:27:30.486Z,11.79
2022-11-20T07:29:58.595Z,11.80
2022-11-20T07:32:29.237Z,11.70
2022-11-20T07:35:00.303Z,11.71
2022-11-20T07:37:30.009Z,11.67
2022-11-20T07:40:00.614Z,11.44
2022-11-20T07:42:30.721Z,11.29
2022-11-20T07:44:58.853Z,11.28
2022-11-20T07:47:28.383Z,11.18
2022-11-20T07:49:59.515Z,11.08
2022-11-20T07:56:00.450Z,11.12
2022-11-20T08:01:09.992Z,10.66
2022-11-20T08:30:41.641Z,10.17
2022-11-20T08:39:58.889Z,9.63
2022-11-20T08:42:27.323Z,9.57
2022-11-20T08:44:59.201Z,9.62
2022-11-20T08:47:27.211Z,9.67
2022-11-20T08:50:00.354Z,9.71
2022-11-20T08:56:06.964Z,9.73
2022-11-20T09:01:29.677Z,9.80
2022-11-20T09:03:58.900Z,9.83
2022-11-20T09:06:26.955Z,9.82
2022-11-20T09:09:06.115Z,9.87
2022-11-20T09:11:56.856Z,10.01
2022-11-20T09:14:34.104Z,10.07
2022-11-20T09:17:02.131Z,10.04
2022-11-20T09:19:56.623Z,10.05
2022-11-20T09:22:27.712Z,10.12
2022-11-20T09:24:58.822Z,10.14
2022-11-20T09:27:26.818Z,10.09
2022-11-20T09:30:09.365Z,10.03
2022-11-20T09:32:56.085Z,9.94
2022-11-20T09:35:27.356Z,9.77
2022-11-20T09:37:58.381Z,9.65
2022-11-20T09:40:28.902Z,9.71
2022-11-20T09:43:03.976Z,9.88
2022-11-20T09:51:29.258Z,9.88
2022-11-20T09:54:29.391Z,9.78
2022-11-20T10:02:27.404Z,9.63
2022-11-20T10:05:07.489Z,9.66
2022-11-20T10:08:00.926Z,9.64
2022-11-20T10:13:13.167Z,9.65
2022-11-20T10:16:03.685Z,9.53
2022-11-20T10:18:56.745Z,9.41
2022-11-20T10:21:57.024Z,9.42
2022-11-20T10:24:25.943Z,9.65
2022-11-20T10:26:57.117Z,9.74
2022-11-20T10:29:54.476Z,9.64
2022-11-20T10:32:30.480Z,9.51
2022-11-20T10:35:11.649Z,9.54
2022-11-20T10:38:01.850Z,9.60
2022-11-20T10:43:56.534Z,9.71
2022-11-20T10:46:30.788Z,9.67
2022-11-20T10:48:58.685Z,9.58
2022-11-20T10:54:27.371Z,9.47
2022-11-20T11:00:27.604Z,9.24
2022-11-20T11:06:26.077Z,9.11
2022-11-20T11:09:29.076Z,8.90
2022-11-20T11:11:57.180Z,8.77
2022-11-20T11:14:28.811Z,8.70
2022-11-20T11:22:56.931Z,8.57
2022-11-20T11:25:32.694Z,8.52
2022-11-20T11:28:25.342Z,8.53
2022-11-20T11:30:54.331Z,8.52
2022-11-20T11:33:33.049Z,8.51
2022-11-20T11:36:28.538Z,8.51
2022-11-20T11:44:52.769Z,8.79
2022-11-20T11:47:27.924Z,8.96
2022-11-20T11:50:25.146Z,9.25
2022-11-20T11:53:24.933Z,9.25
2022-11-20T11:56:12.940Z,9.02
2022-11-20T11:59:24.158Z,8.90
2022-11-20T12:05:25.924Z,8.94
2022-11-20T12:08:24.689Z,8.93
2022-11-20T12:11:24.434Z,8.84
2022-11-20T12:14:25.817Z,8.83
2022-11-20T12:16:55.210Z,8.96
2022-11-20T12:19:26.550Z,9.15
2022-11-20T12:22:23.793Z,9.26
2022-11-20T12:25:24.607Z,9.42
2022-11-20T12:28:23.758Z,9.41
2022-11-20T12:31:23.368Z,9.36
2022-11-20T12:38:22.869Z,9.19
2022-11-20T12:41:27.283Z,9.00
2022-11-20T12:44:36.693Z,8.82
2022-11-20T12:47:36.778Z,8.80
2022-11-20T12:50:53.262Z,9.04
2022-11-20T12:53:33.650Z,9.06
2022-11-20T12:56:22.962Z,9.08
2022-11-20T12:59:25.041Z,9.13
2022-11-20T13:01:59.615Z,8.96
2022-11-20T13:04:33.615Z,8.99
2022-11-20T13:07:23.061Z,9.06
2022-11-20T13:09:54.010Z,9.05
2022-11-20T13:12:31.006Z,9.12
2022-11-20T13:15:23.102Z,9.22
2022-11-20T13:18:23.067Z,9.13
2022-11-20T13:20:54.207Z,9.05
2022-11-20T13:23:26.636Z,8.91
2022-11-20T13:26:23.232Z,8.98
2022-11-20T13:29:21.840Z,8.93
2022-11-20T13:31:52.654Z,8.76
2022-11-20T13:34:28.039Z,8.66
2022-11-20T13:37:27.444Z,8.54
2022-11-20T13:39:51.986Z,8.42
2022-11-20T13:42:27.878Z,8.33
2022-11-20T13:45:21.447Z,8.38
2022-11-20T13:47:52.917Z,8.47
2022-11-20T13:50:23.735Z,8.45
2022-11-20T13:55:28.318Z,8.49
2022-11-20T13:58:21.947Z,8.65
2022-11-20T14:00:57.516Z,8.61
2022-11-20T14:03:51.224Z,8.65
2022-11-20T14:06:35.067Z,8.82
2022-11-20T14:09:34.292Z,8.86
2022-11-20T14:12:50.443Z,8.70
2022-11-20T14:15:32.007Z,8.75
2022-11-20T14:25:49.488Z,8.40
2022-11-20T14:28:50.794Z,8.20
2022-11-20T14:34:53.286Z,8.10
2022-11-20T14:37:26.591Z,8.20
2022-11-20T14:39:57.217Z,8.30
2022-11-20T14:42:49.533Z,8.40
2022-11-20T14:48:21.295Z,8.21
2022-11-20T14:50:50.229Z,8.16
2022-11-20T14:54:19.534Z,8.19
2022-11-20T14:56:58.070Z,8.11
2022-11-20T14:59:26.738Z,8.21
2022-11-20T15:02:00.053Z,8.18
2022-11-20T15:04:49.431Z,8.07
2022-11-20T15:08:49.170Z,7.97
2022-11-20T15:14:08.298Z,7.95
2022-11-20T15:16:51.773Z,8.09
2022-11-20T15:20:56.545Z,8.27
2022-11-20T15:25:07.576Z,8.55
2022-11-20T15:32:37.099Z,8.65
2022-11-20T15:36:08.643Z,8.68
2022-11-20T15:39:19.791Z,8.66
2022-11-20T15:41:49.223Z,8.85
2022-11-20T15:44:20.837Z,9.10
2022-11-20T15:46:49.376Z,9.34
2022-11-20T15:49:48.875Z,9.40
2022-11-20T15:52:19.838Z,9.62
2022-11-20T15:54:50.670Z,9.91
2022-11-20T15:59:59.721Z,10.47
2022-11-20T16:04:52.990Z,10.79
2022-11-20T16:07:21.008Z,11.04
2022-11-20T16:09:49.492Z,11.16
2022-11-20T16:12:50.413Z,11.29
2022-11-20T16:24:49.180Z,12.33
2022-11-20T16:27:20.176Z,12.49
2022-11-20T16:29:51.275Z,12.67
2022-11-20T16:32:19.372Z,12.85
2022-11-20T16:34:47.426Z,13.02
2022-11-20T16:37:18.263Z,13.16
2022-11-20T16:39:49.600Z,13.34
2022-11-20T16:42:17.660Z,13.48
2022-11-20T16:44:49.129Z,13.65
2022-11-20T16:47:46.619Z,13.84
2022-11-20T16:50:18.273Z,14.07
2022-11-20T16:52:56.355Z,14.19
2022-11-20T16:55:58.857Z,14.23
2022-11-20T16:59:17.263Z,14.36
2022-11-20T17:01:53.153Z,14.50
2022-11-20T17:09:49.842Z,14.93
2022-11-20T17:12:18.214Z,15.05
2022-11-20T17:14:59.164Z,15.15
2022-11-20T17:17:56.844Z,15.31
2022-11-20T17:48:11.243Z,16.32
2022-11-20T17:59:08.971Z,17.15
2022-11-20T18:49:21.593Z,18.03
2022-11-20T18:52:23.354Z,17.99
2022-11-20T19:02:14.717Z,17.83
2022-11-20T19:08:51.421Z,18.31
2022-11-20T19:12:27.739Z,18.20
2022-11-20T19:51:22.582Z,18.12
2022-11-20T19:54:20.250Z,18.05
2022-11-20T20:00:29.415Z,17.93
2022-11-20T20:04:01.990Z,17.93
2022-11-20T20:14:17.432Z,17.75
2022-11-20T20:16:48.493Z,17.82
2022-11-20T20:19:21.655Z,17.80
2022-11-20T20:37:22.480Z,17.60
2022-11-20T21:13:22.922Z,17.12
2022-11-20T22:38:05.295Z,16.95
2022-11-20T22:49:07.906Z,16.80
2022-11-20T22:52:31.548Z,16.82
2022-11-20T23:55:14.138Z,17.02
